createdAt,value
2022-08-14T00:01:10.189Z,70.29
2022-08-14T00:03:43.140Z,70.44
2022-08-14T00:06:28.406Z,70.52
2022-08-14T00:09:00.875Z,70.53
2022-08-14T00:11:33.395Z,70.86
2022-08-14T00:14:05.723Z,70.61
2022-08-14T00:16:40.364Z,70.80
2022-08-14T00:19:19.139Z,70.49
2022-08-14T00:21:53.480Z,70.62
2022-08-14T00:24:28.914Z,70.63
2022-08-14T00:27:02.805Z,70.58
2022-08-14T00:29:40.276Z,70.61
2022-08-14T00:32:53.013Z,70.63
2022-08-14T00:35:06.280Z,70.58
2022-08-14T00:37:41.630Z,70.72
2022-08-14T00:40:19.187Z,70.53
2022-08-14T00:43:05.132Z,70.35
2022-08-14T00:45:36.656Z,70.23
2022-08-14T00:48:08.430Z,70.09
2022-08-14T00:50:40.121Z,69.85
2022-08-14T00:53:13.492Z,69.93
2022-08-14T00:55:47.593Z,69.70
2022-08-14T00:58:35.708Z,69.42
2022-08-14T01:01:19.187Z,69.66
2022-08-14T01:03:53.045Z,69.92
2022-08-14T01:06:25.565Z,69.92
2022-08-14T01:09:02.592Z,69.91
2022-08-14T01:11:36.222Z,70.09
2022-08-14T01:14:25.910Z,70.13
2022-08-14T01:16:59.875Z,70.18
2022-08-14T01:19:49.417Z,70.31
2022-08-14T01:22:21.208Z,70.41
2022-08-14T01:24:58.479Z,70.92
2022-08-14T01:27:30.429Z,71.10
2022-08-14T01:30:08.988Z,71.23
2022-08-14T01:32:42.578Z,71.23
2022-08-14T01:35:20.041Z,71.40
2022-08-14T01:38:05.967Z,71.19
2022-08-14T01:40:41.771Z,71.19
2022-08-14T01:43:15.998Z,71.22
2022-08-14T01:45:57.680Z,71.27
2022-08-14T01:48:38.205Z,71.26
2022-08-14T01:51:18.997Z,71.41
2022-08-14T01:53:55.357Z,71.57
2022-08-14T01:56:37.041Z,71.45
2022-08-14T01:59:18.297Z,71.39
2022-08-14T02:01:57.901Z,71.14
2022-08-14T02:04:41.030Z,70.89
2022-08-14T02:07:34.654Z,70.88
2022-08-14T02:10:18.133Z,70.86
2022-08-14T02:12:59.605Z,70.85
2022-08-14T02:15:31.129Z,70.51
2022-08-14T02:18:04.606Z,70.53
2022-08-14T02:20:36.229Z,70.93
2022-08-14T02:23:08.373Z,70.83
2022-08-14T02:25:40.606Z,70.89
2022-08-14T02:28:24.168Z,70.78
2022-08-14T02:31:03.549Z,70.77
2022-08-14T02:33:41.706Z,70.74
2022-08-14T02:37:05.269Z,70.59
2022-08-14T02:39:04.770Z,70.44
2022-08-14T02:41:39.945Z,70.43
2022-08-14T02:44:21.663Z,70.34
2022-08-14T02:47:01.814Z,70.23
2022-08-14T02:49:34.196Z,70.28
2022-08-14T02:52:56.654Z,70.32
2022-08-14T02:54:59.441Z,70.25
2022-08-14T02:57:39.308Z,70.21
2022-08-14T03:00:18.810Z,70.33
2022-08-14T03:02:58.746Z,70.27
2022-08-14T03:05:32.930Z,70.36
2022-08-14T03:08:09.469Z,70.32
2022-08-14T03:10:48.722Z,70.46
2022-08-14T03:13:21.993Z,70.30
2022-08-14T03:15:55.153Z,70.30
2022-08-14T03:18:31.961Z,69.92
2022-08-14T03:21:05.730Z,70.02
2022-08-14T03:23:37.926Z,69.84
2022-08-14T03:26:12.964Z,69.86
2022-08-14T03:28:51.226Z,69.91
2022-08-14T03:31:27.942Z,69.81
2022-08-14T03:34:01.203Z,69.81
2022-08-14T03:37:51.893Z,69.95
2022-08-14T03:39:27.786Z,69.92
2022-08-14T03:42:00.051Z,70.05
2022-08-14T03:45:26.285Z,70.20
2022-08-14T03:47:46.675Z,70.24
2022-08-14T03:50:27.967Z,70.45
2022-08-14T03:53:04.477Z,70.49
2022-08-14T03:55:36.834Z,70.66
2022-08-14T03:58:09.569Z,70.50
2022-08-14T04:00:46.591Z,70.76
2022-08-14T04:03:24.275Z,70.67
2022-08-14T04:05:56.161Z,70.68
2022-08-14T04:08:30.482Z,70.64
2022-08-14T04:11:08.023Z,70.58
2022-08-14T04:13:43.195Z,70.67
2022-08-14T04:16:16.847Z,70.69
2022-08-14T04:18:49.798Z,70.58
2022-08-14T04:21:59.809Z,70.45
2022-08-14T04:24:22.304Z,70.42
2022-08-14T04:26:57.424Z,70.31
2022-08-14T04:29:28.929Z,70.37
2022-08-14T04:33:01.417Z,70.32
2022-08-14T04:34:56.194Z,70.56
2022-08-14T04:37:45.604Z,70.24
2022-08-14T04:40:35.325Z,70.27
2022-08-14T04:43:38.311Z,70.27
2022-08-14T04:46:55.641Z,70.58
2022-08-14T04:49:03.407Z,70.48
2022-08-14T04:51:46.800Z,70.51
2022-08-14T04:54:28.477Z,70.60
2022-08-14T04:56:59.815Z,70.58
2022-08-14T04:59:31.756Z,70.62
2022-08-14T05:02:03.829Z,70.58
2022-08-14T05:04:35.255Z,70.57
2022-08-14T05:07:11.393Z,70.58
2022-08-14T05:09:43.921Z,70.48
2022-08-14T05:13:13.308Z,70.83
2022-08-14T05:15:12.074Z,70.79
2022-08-14T05:17:58.640Z,70.69
2022-08-14T05:21:54.685Z,71.08
2022-08-14T05:23:28.890Z,71.39
2022-08-14T05:26:02.238Z,71.41
2022-08-14T05:28:34.367Z,72.40
2022-08-14T05:31:07.039Z,71.83
2022-08-14T05:33:39.287Z,69.51
2022-08-14T05:36:16.840Z,66.76
2022-08-14T05:38:48.876Z,66.23
2022-08-14T05:41:21.756Z,66.69
2022-08-14T05:43:53.523Z,66.61
2022-08-14T05:46:25.114Z,64.68
2022-08-14T05:48:57.794Z,63.13
2022-08-14T05:51:30.655Z,62.49
2022-08-14T05:54:12.775Z,60.48
2022-08-14T05:56:45.680Z,60.53
2022-08-14T05:59:17.049Z,61.17
2022-08-14T06:01:51.166Z,61.43
2022-08-14T06:04:22.803Z,61.69
2022-08-14T06:06:56.476Z,61.87
2022-08-14T06:09:29.859Z,61.79
2022-08-14T06:12:08.578Z,61.92
2022-08-14T06:14:40.073Z,62.39
2022-08-14T06:17:25.657Z,62.28
2022-08-14T06:19:57.557Z,62.86
2022-08-14T06:22:29.080Z,63.04
2022-08-14T06:25:00.362Z,62.95
2022-08-14T06:27:36.522Z,63.48
2022-08-14T06:30:10.871Z,63.88
2022-08-14T06:32:42.382Z,64.18
2022-08-14T06:35:15.006Z,64.73
2022-08-14T06:37:47.933Z,64.90
2022-08-14T06:40:26.920Z,65.62
2022-08-14T06:43:03.160Z,65.23
2022-08-14T06:45:36.165Z,65.68
2022-08-14T06:48:14.792Z,65.24
2022-08-14T06:50:48.942Z,64.60
2022-08-14T06:53:20.338Z,64.26
2022-08-14T06:55:58.290Z,64.32
2022-08-14T06:58:32.872Z,64.92
2022-08-14T07:01:27.064Z,65.31
2022-08-14T07:04:18.880Z,65.93
2022-08-14T07:06:59.383Z,67.25
2022-08-14T07:09:43.616Z,67.05
2022-08-14T07:12:54.694Z,66.37
2022-08-14T07:15:13.608Z,66.98
2022-08-14T07:17:52.014Z,66.89
2022-08-14T07:20:30.581Z,64.68
2022-08-14T07:23:08.615Z,64.06
2022-08-14T07:25:44.304Z,63.22
2022-08-14T07:28:20.786Z,61.57
2022-08-14T07:30:56.616Z,60.96
2022-08-14T07:33:30.212Z,60.75
2022-08-14T07:36:26.272Z,60.77
2022-08-14T07:38:55.991Z,60.68
2022-08-14T07:41:34.141Z,60.59
2022-08-14T07:44:32.672Z,60.35
2022-08-14T07:46:59.075Z,59.78
2022-08-14T07:49:30.808Z,59.41
2022-08-14T07:52:03.361Z,58.91
2022-08-14T07:54:34.900Z,59.09
2022-08-14T07:57:12.571Z,59.06
2022-08-14T07:59:53.873Z,59.37
2022-08-14T08:02:26.578Z,59.85
2022-08-14T08:04:59.679Z,59.80
2022-08-14T08:07:32.670Z,59.43
2022-08-14T08:10:46.208Z,59.63
2022-08-14T08:13:23.918Z,59.44
2022-08-14T08:15:57.621Z,59.40
2022-08-14T08:18:31.159Z,59.86
2022-08-14T08:21:03.144Z,60.18
2022-08-14T08:23:40.568Z,60.12
2022-08-14T08:26:15.798Z,60.33
2022-08-14T08:28:57.179Z,60.53
2022-08-14T08:31:32.818Z,60.77
2022-08-14T08:34:14.138Z,60.05
2022-08-14T08:36:46.563Z,60.80
2022-08-14T08:39:22.692Z,60.22
2022-08-14T08:41:54.612Z,60.81
2022-08-14T08:44:34.299Z,61.11
2022-08-14T08:47:08.170Z,61.37
2022-08-14T08:49:48.528Z,61.55
2022-08-14T08:52:32.147Z,59.54
2022-08-14T08:55:05.052Z,60.48
2022-08-14T08:57:38.208Z,59.74
2022-08-14T09:00:24.894Z,59.85
2022-08-14T09:02:59.668Z,60.14
2022-08-14T09:05:32.255Z,60.35
2022-08-14T09:08:30.864Z,60.50
2022-08-14T09:11:18.781Z,60.31
2022-08-14T09:13:53.928Z,59.56
2022-08-14T09:16:26.311Z,60.10
2022-08-14T09:18:58.346Z,60.58
2022-08-14T09:21:31.925Z,60.54
2022-08-14T09:24:28.404Z,60.04
2022-08-14T09:26:55.338Z,60.23
2022-08-14T09:29:28.775Z,60.18
2022-08-14T09:32:02.382Z,60.47
2022-08-14T09:34:58.375Z,61.10
2022-08-14T09:37:40.100Z,60.74
2022-08-14T09:40:21.009Z,60.28
2022-08-14T09:42:58.029Z,60.75
2022-08-14T09:45:39.762Z,61.19
2022-08-14T09:48:30.179Z,61.45
2022-08-14T09:54:12.568Z,62.00
2022-08-14T09:56:45.385Z,62.19
2022-08-14T09:59:22.928Z,62.11
2022-08-14T10:01:57.450Z,62.62
2022-08-14T10:04:36.544Z,62.60
2022-08-14T10:07:12.388Z,62.72
2022-08-14T10:09:59.637Z,62.82
2022-08-14T10:12:52.988Z,63.13
2022-08-14T10:15:29.859Z,63.36
2022-08-14T10:18:13.332Z,63.81
2022-08-14T10:20:58.185Z,63.99
2022-08-14T10:23:34.978Z,64.10
2022-08-14T10:26:08.629Z,63.93
2022-08-14T10:29:18.385Z,64.11
2022-08-14T10:31:40.078Z,64.01
2022-08-14T10:34:15.408Z,64.02
2022-08-14T10:36:50.123Z,63.57
2022-08-14T10:39:34.047Z,63.21
2022-08-14T10:42:18.336Z,62.78
2022-08-14T10:44:53.069Z,63.28
2022-08-14T10:47:39.475Z,63.02
2022-08-14T10:50:34.451Z,62.81
2022-08-14T10:53:08.189Z,62.40
2022-08-14T10:55:45.742Z,62.85
2022-08-14T10:58:28.661Z,62.96
2022-08-14T11:01:08.330Z,62.85
2022-08-14T11:03:55.951Z,62.77
2022-08-14T11:06:29.221Z,62.34
2022-08-14T11:09:00.718Z,62.64
2022-08-14T11:11:37.098Z,62.85
2022-08-14T11:14:09.731Z,62.19
2022-08-14T11:16:49.095Z,60.71
2022-08-14T11:19:25.939Z,59.56
2022-08-14T11:22:00.263Z,59.14
2022-08-14T11:24:54.463Z,59.28
2022-08-14T11:27:33.271Z,58.55
2022-08-14T11:30:49.832Z,56.41
2022-08-14T11:33:01.363Z,56.86
2022-08-14T11:35:44.194Z,56.98
2022-08-14T11:38:21.722Z,57.58
2022-08-14T11:40:53.856Z,58.02
2022-08-14T11:43:29.105Z,58.57
2022-08-14T11:46:03.540Z,58.84
2022-08-14T11:49:01.789Z,58.07
2022-08-14T11:51:54.370Z,58.24
2022-08-14T11:54:34.561Z,58.17
2022-08-14T11:57:07.698Z,58.15
2022-08-14T11:59:44.305Z,58.38
2022-08-14T12:03:01.030Z,58.42
2022-08-14T12:05:10.731Z,58.11
2022-08-14T12:07:51.380Z,58.33
2022-08-14T12:10:27.293Z,58.55
2022-08-14T12:13:17.353Z,59.13
2022-08-14T12:15:58.888Z,57.96
2022-08-14T12:18:35.435Z,58.76
2022-08-14T12:21:19.297Z,58.38
2022-08-14T12:24:04.222Z,58.53
2022-08-14T12:26:40.653Z,58.54
2022-08-14T12:29:14.787Z,58.38
2022-08-14T12:31:51.534Z,57.60
2022-08-14T12:34:24.246Z,57.70
2022-08-14T12:37:06.241Z,58.66
2022-08-14T12:39:39.742Z,58.70
2022-08-14T12:42:34.238Z,58.48
2022-08-14T12:45:05.938Z,58.34
2022-08-14T12:47:39.858Z,58.53
2022-08-14T12:50:12.342Z,58.19
2022-08-14T12:53:06.423Z,58.05
2022-08-14T12:56:17.809Z,58.20
2022-08-14T12:58:50.011Z,56.26
2022-08-14T13:01:25.810Z,56.10
2022-08-14T13:04:07.614Z,56.01
2022-08-14T13:06:42.231Z,57.12
2022-08-14T13:09:17.126Z,57.21
2022-08-14T13:11:58.452Z,57.45
2022-08-14T13:14:33.994Z,57.49
2022-08-14T13:17:05.890Z,57.55
2022-08-14T13:19:41.662Z,57.00
2022-08-14T13:22:19.452Z,56.99
2022-08-14T13:25:05.268Z,57.36
2022-08-14T13:27:39.487Z,56.96
2022-08-14T13:30:21.234Z,56.75
2022-08-14T13:32:57.733Z,56.71
2022-08-14T13:35:29.854Z,56.52
2022-08-14T13:38:01.884Z,56.53
2022-08-14T13:40:33.656Z,56.70
2022-08-14T13:43:10.621Z,56.72
2022-08-14T13:45:59.901Z,56.43
2022-08-14T13:48:36.084Z,56.36
2022-08-14T13:51:10.842Z,56.49
2022-08-14T13:54:06.939Z,56.87
2022-08-14T13:56:39.399Z,57.22
2022-08-14T13:59:12.007Z,57.61
2022-08-14T14:01:52.139Z,57.45
2022-08-14T14:04:25.288Z,57.21
2022-08-14T14:06:59.036Z,57.53
2022-08-14T14:09:37.463Z,57.29
2022-08-14T14:12:37.690Z,56.88
2022-08-14T14:15:04.898Z,57.62
2022-08-14T14:17:38.909Z,57.53
2022-08-14T14:20:15.140Z,57.87
2022-08-14T14:23:12.157Z,57.02
2022-08-14T14:25:57.191Z,56.99
2022-08-14T14:28:31.375Z,56.79
2022-08-14T14:31:05.945Z,56.79
2022-08-14T14:33:46.851Z,56.71
2022-08-14T14:36:22.068Z,56.44
2022-08-14T14:38:57.416Z,56.59
2022-08-14T14:41:37.980Z,56.56
2022-08-14T14:44:13.586Z,56.79
2022-08-14T14:46:53.066Z,56.81
2022-08-14T14:49:25.919Z,56.46
2022-08-14T14:52:27.014Z,56.65
2022-08-14T14:55:00.557Z,56.81
2022-08-14T14:57:35.104Z,56.66
2022-08-14T15:00:12.587Z,56.96
2022-08-14T15:02:45.626Z,57.31
2022-08-14T15:05:19.075Z,57.30
2022-08-14T15:07:52.677Z,57.68
2022-08-14T15:10:27.323Z,57.39
2022-08-14T15:13:04.423Z,57.42
2022-08-14T15:15:37.878Z,57.25
2022-08-14T15:18:35.856Z,57.57
2022-08-14T15:21:03.367Z,57.36
2022-08-14T15:23:44.339Z,57.56
2022-08-14T15:26:31.269Z,57.70
2022-08-14T15:29:06.412Z,57.65
2022-08-14T15:31:38.755Z,57.88
2022-08-14T15:34:45.968Z,58.01
2022-08-14T15:37:12.739Z,57.94
2022-08-14T15:39:45.402Z,57.94
2022-08-14T15:42:17.158Z,58.17
2022-08-14T15:44:58.076Z,57.51
2022-08-14T15:47:35.201Z,57.69
2022-08-14T15:50:13.771Z,58.11
2022-08-14T15:52:45.622Z,58.31
2022-08-14T15:55:17.536Z,58.33
2022-08-14T15:58:02.128Z,58.27
2022-08-14T16:00:55.348Z,58.20
2022-08-14T16:03:36.563Z,58.44
2022-08-14T16:06:15.740Z,58.43
2022-08-14T16:08:58.962Z,58.21
2022-08-14T16:11:32.936Z,58.31
2022-08-14T16:14:06.754Z,58.55
2022-08-14T16:16:51.582Z,58.36
2022-08-14T16:19:44.079Z,58.61
2022-08-14T16:22:58.156Z,58.67
2022-08-14T16:25:10.911Z,58.90
2022-08-14T16:27:51.378Z,58.74
2022-08-14T16:30:27.472Z,58.71
2022-08-14T16:33:01.988Z,58.46
2022-08-14T16:35:42.447Z,58.47
2022-08-14T16:38:46.195Z,59.02
2022-08-14T16:41:21.227Z,59.12
2022-08-14T16:43:58.870Z,59.08
2022-08-14T16:46:32.905Z,59.30
2022-08-14T16:49:06.816Z,59.43
2022-08-14T16:51:39.822Z,59.20
2022-08-14T16:54:20.999Z,59.72
2022-08-14T16:57:20.960Z,59.77
2022-08-14T16:59:57.744Z,59.93
2022-08-14T17:02:39.806Z,59.65
2022-08-14T17:05:22.331Z,59.64
2022-08-14T17:08:32.562Z,59.68
2022-08-14T17:11:09.760Z,59.83
2022-08-14T17:13:58.677Z,59.81
2022-08-14T17:16:37.434Z,60.07
2022-08-14T17:19:14.366Z,60.01
2022-08-14T17:21:50.874Z,60.18
2022-08-14T17:24:56.934Z,60.22
2022-08-14T17:27:18.453Z,60.12
2022-08-14T17:29:57.951Z,60.26
2022-08-14T17:32:44.046Z,60.18
2022-08-14T17:35:18.241Z,60.25
2022-08-14T17:37:55.847Z,60.47
2022-08-14T17:40:31.845Z,60.39
2022-08-14T17:43:04.010Z,60.22
2022-08-14T17:45:46.952Z,59.89
2022-08-14T17:49:14.088Z,59.90
2022-08-14T17:51:23.732Z,60.12
2022-08-14T17:54:03.433Z,60.07
2022-08-14T17:56:36.215Z,60.23
2022-08-14T17:59:11.666Z,60.19
2022-08-14T18:01:49.723Z,60.27
2022-08-14T18:04:25.147Z,60.52
2022-08-14T18:07:16.104Z,60.79
2022-08-14T18:09:57.060Z,60.58
2022-08-14T18:12:36.901Z,60.53
2022-08-14T18:15:15.848Z,60.63
2022-08-14T18:17:53.106Z,60.68
2022-08-14T18:21:42.982Z,60.89
2022-08-14T18:23:18.655Z,61.00
2022-08-14T18:25:52.299Z,61.29
2022-08-14T18:28:48.443Z,61.19
2022-08-14T18:31:43.599Z,61.58
2022-08-14T18:34:30.975Z,61.75
2022-08-14T18:37:17.650Z,61.39
2022-08-14T18:40:02.756Z,61.26
2022-08-14T18:42:46.446Z,60.85
2022-08-14T18:45:28.744Z,60.20
2022-08-14T18:48:15.805Z,59.28
2022-08-14T18:50:52.888Z,58.29
2022-08-14T18:53:34.199Z,58.26
2022-08-14T18:56:09.527Z,58.63
2022-08-14T18:58:58.462Z,58.66
2022-08-14T19:01:31.164Z,59.05
2022-08-14T19:04:04.074Z,59.36
2022-08-14T19:06:55.788Z,60.18
2022-08-14T19:09:50.235Z,60.24
2022-08-14T19:12:44.522Z,60.28
2022-08-14T19:15:25.959Z,60.98
2022-08-14T19:18:14.301Z,61.27
2022-08-14T19:20:53.323Z,61.66
2022-08-14T19:23:42.256Z,61.94
2022-08-14T19:26:35.542Z,62.24
2022-08-14T19:29:23.496Z,62.47
2022-08-14T19:31:58.886Z,62.91
2022-08-14T19:34:52.212Z,63.12
2022-08-14T19:37:38.174Z,63.30
2022-08-14T19:40:15.239Z,63.56
2022-08-14T19:42:51.902Z,63.76
2022-08-14T19:45:33.703Z,63.84
2022-08-14T19:48:12.377Z,64.10
2022-08-14T19:50:46.941Z,64.18
2022-08-14T19:53:19.703Z,64.59
2022-08-14T19:55:59.374Z,64.98
2022-08-14T19:58:54.891Z,65.45
2022-08-14T20:01:36.588Z,65.81
2022-08-14T20:04:47.053Z,65.72
2022-08-14T20:07:04.262Z,65.85
2022-08-14T20:11:07.976Z,65.81
2022-08-14T20:12:57.211Z,65.45
2022-08-14T20:15:46.808Z,65.25
2022-08-14T20:18:49.866Z,65.67
2022-08-14T20:21:20.198Z,65.78
2022-08-14T20:23:52.128Z,65.97
2022-08-14T20:26:32.017Z,66.12
2022-08-14T20:29:08.650Z,66.03
2022-08-14T20:31:40.604Z,66.22
2022-08-14T20:34:18.890Z,66.37
2022-08-14T20:37:09.635Z,66.21
2022-08-14T20:39:43.632Z,66.48
2022-08-14T20:42:35.733Z,66.34
2022-08-14T20:45:23.745Z,66.31
2022-08-14T20:48:01.107Z,66.23
2022-08-14T20:50:33.568Z,66.67
2022-08-14T20:53:26.551Z,66.63
2022-08-14T20:56:04.396Z,66.59
2022-08-14T20:58:47.891Z,66.77
2022-08-14T21:01:36.721Z,66.93
2022-08-14T21:04:22.771Z,67.18
2022-08-14T21:07:25.195Z,67.26
2022-08-14T21:10:05.645Z,67.44
2022-08-14T21:13:25.787Z,67.54
2022-08-14T21:15:32.905Z,67.64
2022-08-14T21:18:05.634Z,67.75
2022-08-14T21:20:38.466Z,68.12
2022-08-14T21:23:12.350Z,68.14
2022-08-14T21:25:46.322Z,68.38
2022-08-14T21:28:29.318Z,68.63
2022-08-14T21:31:02.426Z,68.77
2022-08-14T21:33:34.679Z,68.89
2022-08-14T21:36:07.852Z,69.10
2022-08-14T21:38:42.474Z,69.15
2022-08-14T21:41:41.245Z,69.22
2022-08-14T21:44:18.086Z,69.34
2022-08-14T21:46:54.115Z,69.55
2022-08-14T21:49:33.831Z,69.66
2022-08-14T21:52:51.584Z,69.82
2022-08-14T21:55:09.089Z,69.76
2022-08-14T21:58:44.863Z,69.85
2022-08-14T22:00:42.546Z,70.00
2022-08-14T22:03:17.580Z,69.99
2022-08-14T22:05:50.531Z,70.36
2022-08-14T22:08:26.759Z,70.56
2022-08-14T22:10:59.634Z,70.73
2022-08-14T22:13:32.638Z,70.77
2022-08-14T22:16:04.927Z,70.82
2022-08-14T22:18:36.753Z,71.19
2022-08-14T22:21:16.838Z,71.39
2022-08-14T22:23:49.317Z,71.72
2022-08-14T22:26:23.557Z,71.87
2022-08-14T22:29:06.940Z,72.09
2022-08-14T22:31:41.666Z,72.22
2022-08-14T22:34:16.179Z,72.40
2022-08-14T22:36:51.129Z,72.41
2022-08-14T22:39:40.175Z,72.48
2022-08-14T22:42:21.343Z,72.50
2022-08-14T22:44:56.460Z,72.38
2022-08-14T22:47:40.305Z,72.44
2022-08-14T22:50:32.454Z,72.41
2022-08-14T22:53:06.904Z,72.33
2022-08-14T22:55:42.720Z,72.34
2022-08-14T22:58:17.238Z,72.48
2022-08-14T23:00:50.917Z,72.70
2022-08-14T23:03:23.549Z,72.80
2022-08-14T23:05:55.804Z,72.89
2022-08-14T23:08:58.943Z,72.95
2022-08-14T23:11:20.716Z,73.10
2022-08-14T23:13:55.091Z,73.15
2022-08-14T23:16:26.801Z,73.31
2022-08-14T23:18:58.590Z,73.32
2022-08-14T23:21:30.611Z,73.55
2022-08-14T23:24:05.505Z,73.50
2022-08-14T23:26:48.180Z,73.61
2022-08-14T23:29:22.275Z,73.71
2022-08-14T23:31:53.886Z,73.84
2022-08-14T23:34:26.191Z,73.95
2022-08-14T23:37:03.908Z,74.06
2022-08-14T23:39:39.096Z,74.08
2022-08-14T23:42:11.876Z,74.08
2022-08-14T23:44:47.353Z,74.18
2022-08-14T23:47:26.324Z,74.17
2022-08-14T23:50:07.583Z,74.24
2022-08-14T23:52:55.609Z,74.15
2022-08-14T23:55:33.454Z,74.12
2022-08-14T23:58:04.876Z,74.16
